HBBA/BJM METAR and TAF weather

Enter ICAO airport designator
Station Type Date Time Source
HBBA METAR 2021/09/27 07:00 UTC NOAA

HBBA 270700Z 00000KT 9000 SCT025 BKN100 27/17 Q1014 NOSIG


Station Type Date Time Source
HBBA Decoded METAR 2021/09/27 07:00 UTC NOAA

Bujumbura, Burundi (HBBA) 03-19S 029-19E 783M
Sep 27, 2021 - 03:00 AM EDT / 2021.09.27 0700 UTC
Wind: Calm:0
Visibility: 5 mile(s):0
Sky conditions: mostly cloudy
Temperature: 80 F (27 C)
Dew Point: 62 F (17 C)
Relative Humidity: 54%
Pressure (altimeter): 29.94 in. Hg (1014 hPa)
ob: HBBA 270700Z 00000KT 9000 SCT025 BKN100 27/17 Q1014 NOSIG
cycle: 7

Station Type Date Time Source
HBBA TAF 2021/09/27 06:54 UTC NOAA

TAF TAF HBBA 270500Z 2706/2812 36004KT 9999 FEW025
BECMG2708/2710 18010G22KT 9999 FEW030
BECMG2715/2717 18012G27KT 9999 SCT025CB BKN100
BECMG2802/2804KT 36004KT 9000 FEW025
BECMG2810/2812 18010G22KT

Example: see airport list